sensor_id;sensor_type;location;lat;lon;timestamp;temperature;humidity
3208;DHT22;1616;52.394;9.756;2022-09-03T00:00:51;17.40;1.00
3208;DHT22;1616;52.394;9.756;2022-09-03T00:03:23;17.40;1.00
3208;DHT22;1616;52.394;9.756;2022-09-03T00:08:37;17.40;1.00
3208;DHT22;1616;52.394;9.756;2022-09-03T00:14:06;17.30;1.00
3208;DHT22;1616;52.394;9.756;2022-09-03T00:16:44;17.20;1.00
3208;DHT22;1616;52.394;9.756;2022-09-03T00:19:12;17.30;1.00
3208;DHT22;1616;52.394;9.756;2022-09-03T00:21:48;17.30;1.00
3208;DHT22;1616;52.394;9.756;2022-09-03T00:24:18;17.30;1.00
3208;DHT22;1616;52.394;9.756;2022-09-03T00:26:52;17.30;1.00
3208;DHT22;1616;52.394;9.756;2022-09-03T00:29:26;17.30;1.00
3208;DHT22;1616;52.394;9.756;2022-09-03T00:31:56;17.20;1.00
3208;DHT22;1616;52.394;9.756;2022-09-03T00:35:12;17.20;1.00
3208;DHT22;1616;52.394;9.756;2022-09-03T00:37:11;17.20;1.00
3208;DHT22;1616;52.394;9.756;2022-09-03T00:39:37;17.20;1.00
3208;DHT22;1616;52.394;9.756;2022-09-03T00:42:41;17.20;1.00
3208;DHT22;1616;52.394;9.756;2022-09-03T00:48:10;17.10;1.00
3208;DHT22;1616;52.394;9.756;2022-09-03T00:51:17;17.10;1.00
3208;DHT22;1616;52.394;9.756;2022-09-03T00:54:05;17.10;1.00
3208;DHT22;1616;52.394;9.756;2022-09-03T00:59:59;17.10;1.00
3208;DHT22;1616;52.394;9.756;2022-09-03T01:03:00;17.00;1.00
3208;DHT22;1616;52.394;9.756;2022-09-03T01:11:07;16.80;1.00
3208;DHT22;1616;52.394;9.756;2022-09-03T01:13:41;16.70;1.00
3208;DHT22;1616;52.394;9.756;2022-09-03T01:16:15;16.70;1.00
3208;DHT22;1616;52.394;9.756;2022-09-03T01:19:23;16.60;1.00
3208;DHT22;1616;52.394;9.756;2022-09-03T01:22:24;16.60;1.00
3208;DHT22;1616;52.394;9.756;2022-09-03T01:30:50;16.50;1.00
3208;DHT22;1616;52.394;9.756;2022-09-03T01:33:36;16.50;1.00
3208;DHT22;1616;52.394;9.756;2022-09-03T01:38:55;16.40;1.00
3208;DHT22;1616;52.394;9.756;2022-09-03T01:44:47;16.40;1.00
3208;DHT22;1616;52.394;9.756;2022-09-03T01:49:55;16.40;1.00
3208;DHT22;1616;52.394;9.756;2022-09-03T01:52:42;16.30;1.00
3208;DHT22;1616;52.394;9.756;2022-09-03T01:55:32;16.30;1.00
3208;DHT22;1616;52.394;9.756;2022-09-03T01:58:06;16.30;1.00
3208;DHT22;1616;52.394;9.756;2022-09-03T02:00:35;16.30;1.00
3208;DHT22;1616;52.394;9.756;2022-09-03T02:03:04;16.30;1.00
3208;DHT22;1616;52.394;9.756;2022-09-03T02:05:31;16.30;1.00
3208;DHT22;1616;52.394;9.756;2022-09-03T02:08:03;16.20;1.00
3208;DHT22;1616;52.394;9.756;2022-09-03T02:13:07;16.20;1.00
3208;DHT22;1616;52.394;9.756;2022-09-03T02:15:39;16.10;1.00
3208;DHT22;1616;52.394;9.756;2022-09-03T02:18:10;16.20;1.00
3208;DHT22;1616;52.394;9.756;2022-09-03T02:20:38;16.20;1.00
3208;DHT22;1616;52.394;9.756;2022-09-03T02:23:04;16.20;1.00
3208;DHT22;1616;52.394;9.756;2022-09-03T02:25:36;16.20;1.00
3208;DHT22;1616;52.394;9.756;2022-09-03T02:28:05;16.20;1.00
3208;DHT22;1616;52.394;9.756;2022-09-03T02:30:32;16.20;1.00
3208;DHT22;1616;52.394;9.756;2022-09-03T02:32:58;16.20;1.00
3208;DHT22;1616;52.394;9.756;2022-09-03T02:35:24;16.10;1.00
3208;DHT22;1616;52.394;9.756;2022-09-03T02:37:50;16.10;1.00
3208;DHT22;1616;52.394;9.756;2022-09-03T02:40:16;16.10;1.00
3208;DHT22;1616;52.394;9.756;2022-09-03T02:42:42;16.10;1.00
3208;DHT22;1616;52.394;9.756;2022-09-03T02:45:27;16.10;1.00
3208;DHT22;1616;52.394;9.756;2022-09-03T02:47:55;16.10;1.00
3208;DHT22;1616;52.394;9.756;2022-09-03T02:50:22;16.00;1.00
3208;DHT22;1616;52.394;9.756;2022-09-03T02:52:48;16.00;1.00
3208;DHT22;1616;52.394;9.756;2022-09-03T02:55:14;16.00;1.00
3208;DHT22;1616;52.394;9.756;2022-09-03T02:57:40;16.00;1.00
3208;DHT22;1616;52.394;9.756;2022-09-03T03:00:06;16.00;1.00
3208;DHT22;1616;52.394;9.756;2022-09-03T03:02:32;16.00;1.00
3208;DHT22;1616;52.394;9.756;2022-09-03T03:04:58;16.10;1.00
3208;DHT22;1616;52.394;9.756;2022-09-03T03:07:24;16.10;1.00
3208;DHT22;1616;52.394;9.756;2022-09-03T03:09:51;16.10;1.00
3208;DHT22;1616;52.394;9.756;2022-09-03T03:12:18;16.10;1.00
3208;DHT22;1616;52.394;9.756;2022-09-03T03:14:44;16.10;1.00
3208;DHT22;1616;52.394;9.756;2022-09-03T03:17:10;16.10;1.00
3208;DHT22;1616;52.394;9.756;2022-09-03T03:19:35;16.20;1.00
3208;DHT22;1616;52.394;9.756;2022-09-03T03:22:01;16.20;1.00
3208;DHT22;1616;52.394;9.756;2022-09-03T03:24:27;16.20;1.00
3208;DHT22;1616;52.394;9.756;2022-09-03T03:26:56;16.10;1.00
3208;DHT22;1616;52.394;9.756;2022-09-03T03:29:22;16.20;1.00
3208;DHT22;1616;52.394;9.756;2022-09-03T03:31:50;16.20;1.00
3208;DHT22;1616;52.394;9.756;2022-09-03T03:34:16;16.20;1.00
3208;DHT22;1616;52.394;9.756;2022-09-03T03:36:41;16.20;1.00
3208;DHT22;1616;52.394;9.756;2022-09-03T03:39:07;16.20;1.00
3208;DHT22;1616;52.394;9.756;2022-09-03T03:41:34;16.20;1.00
3208;DHT22;1616;52.394;9.756;2022-09-03T03:44:05;16.20;1.00
3208;DHT22;1616;52.394;9.756;2022-09-03T03:46:37;16.20;1.00
3208;DHT22;1616;52.394;9.756;2022-09-03T03:49:03;16.20;1.00
3208;DHT22;1616;52.394;9.756;2022-09-03T03:51:29;16.10;1.00
3208;DHT22;1616;52.394;9.756;2022-09-03T03:53:55;16.10;1.00
3208;DHT22;1616;52.394;9.756;2022-09-03T03:56:22;16.10;1.00
3208;DHT22;1616;52.394;9.756;2022-09-03T03:58:48;16.10;1.00
3208;DHT22;1616;52.394;9.756;2022-09-03T04:01:16;16.00;1.00
3208;DHT22;1616;52.394;9.756;2022-09-03T04:03:42;16.00;1.00
3208;DHT22;1616;52.394;9.756;2022-09-03T04:06:10;16.00;1.00
3208;DHT22;1616;52.394;9.756;2022-09-03T04:08:38;16.00;1.00
3208;DHT22;1616;52.394;9.756;2022-09-03T04:11:06;15.90;1.00
3208;DHT22;1616;52.394;9.756;2022-09-03T04:13:34;15.90;1.00
3208;DHT22;1616;52.394;9.756;2022-09-03T04:16:24;15.90;1.00
3208;DHT22;1616;52.394;9.756;2022-09-03T04:18:50;15.90;1.00
3208;DHT22;1616;52.394;9.756;2022-09-03T04:21:22;15.80;1.00
3208;DHT22;1616;52.394;9.756;2022-09-03T04:23:48;15.80;1.00
3208;DHT22;1616;52.394;9.756;2022-09-03T04:26:17;15.80;1.00
3208;DHT22;1616;52.394;9.756;2022-09-03T04:28:43;15.70;1.00
3208;DHT22;1616;52.394;9.756;2022-09-03T04:31:11;15.70;1.00
3208;DHT22;1616;52.394;9.756;2022-09-03T04:33:38;15.80;1.00
3208;DHT22;1616;52.394;9.756;2022-09-03T04:36:09;15.70;1.00
3208;DHT22;1616;52.394;9.756;2022-09-03T04:38:37;15.70;1.00
3208;DHT22;1616;52.394;9.756;2022-09-03T04:41:05;15.60;1.00
3208;DHT22;1616;52.394;9.756;2022-09-03T04:43:31;15.50;1.00
3208;DHT22;1616;52.394;9.756;2022-09-03T04:46:02;15.50;1.00
3208;DHT22;1616;52.394;9.756;2022-09-03T04:48:29;15.50;1.00
3208;DHT22;1616;52.394;9.756;2022-09-03T04:51:02;15.50;1.00
3208;DHT22;1616;52.394;9.756;2022-09-03T04:53:35;15.50;1.00
3208;DHT22;1616;52.394;9.756;2022-09-03T04:56:01;15.50;1.00
3208;DHT22;1616;52.394;9.756;2022-09-03T04:58:27;15.50;1.00
3208;DHT22;1616;52.394;9.756;2022-09-03T05:00:52;15.60;1.00
3208;DHT22;1616;52.394;9.756;2022-09-03T05:03:18;15.70;1.00
3208;DHT22;1616;52.394;9.756;2022-09-03T05:05:55;16.00;1.00
3208;DHT22;1616;52.394;9.756;2022-09-03T05:08:22;16.40;1.00
3208;DHT22;1616;52.394;9.756;2022-09-03T05:10:48;16.80;1.00
3208;DHT22;1616;52.394;9.756;2022-09-03T05:13:14;17.20;1.00
3208;DHT22;1616;52.394;9.756;2022-09-03T05:15:39;17.60;1.00
3208;DHT22;1616;52.394;9.756;2022-09-03T05:18:07;18.20;1.00
3208;DHT22;1616;52.394;9.756;2022-09-03T05:20:33;18.60;1.00
3208;DHT22;1616;52.394;9.756;2022-09-03T05:23:02;19.10;1.00
3208;DHT22;1616;52.394;9.756;2022-09-03T05:25:29;19.40;1.00
3208;DHT22;1616;52.394;9.756;2022-09-03T05:27:57;19.80;1.00
3208;DHT22;1616;52.394;9.756;2022-09-03T05:30:22;20.10;1.00
3208;DHT22;1616;52.394;9.756;2022-09-03T05:32:49;20.60;1.00
3208;DHT22;1616;52.394;9.756;2022-09-03T05:35:14;20.90;1.00
3208;DHT22;1616;52.394;9.756;2022-09-03T05:37:40;21.30;1.00
3208;DHT22;1616;52.394;9.756;2022-09-03T05:40:06;21.60;1.00
3208;DHT22;1616;52.394;9.756;2022-09-03T05:42:34;21.90;1.00
3208;DHT22;1616;52.394;9.756;2022-09-03T05:45:07;22.20;1.00
3208;DHT22;1616;52.394;9.756;2022-09-03T05:47:38;22.50;1.00
3208;DHT22;1616;52.394;9.756;2022-09-03T05:50:06;22.80;1.00
3208;DHT22;1616;52.394;9.756;2022-09-03T05:52:34;23.10;1.00
3208;DHT22;1616;52.394;9.756;2022-09-03T05:54:59;23.20;1.00
3208;DHT22;1616;52.394;9.756;2022-09-03T05:57:25;23.30;1.00
3208;DHT22;1616;52.394;9.756;2022-09-03T05:59:51;23.40;1.00
3208;DHT22;1616;52.394;9.756;2022-09-03T06:02:17;23.60;1.00
3208;DHT22;1616;52.394;9.756;2022-09-03T06:04:44;24.00;1.00
3208;DHT22;1616;52.394;9.756;2022-09-03T06:07:10;24.30;1.00
3208;DHT22;1616;52.394;9.756;2022-09-03T06:09:36;24.40;1.00
3208;DHT22;1616;52.394;9.756;2022-09-03T06:12:02;24.60;1.00
3208;DHT22;1616;52.394;9.756;2022-09-03T06:14:28;24.90;1.00
3208;DHT22;1616;52.394;9.756;2022-09-03T06:16:53;25.20;1.00
3208;DHT22;1616;52.394;9.756;2022-09-03T06:19:21;25.40;1.00
3208;DHT22;1616;52.394;9.756;2022-09-03T06:21:46;25.60;1.00
3208;DHT22;1616;52.394;9.756;2022-09-03T06:24:17;25.70;1.00
3208;DHT22;1616;52.394;9.756;2022-09-03T06:26:44;25.80;1.00
3208;DHT22;1616;52.394;9.756;2022-09-03T06:29:11;26.00;1.00
3208;DHT22;1616;52.394;9.756;2022-09-03T06:31:38;26.30;1.00
3208;DHT22;1616;52.394;9.756;2022-09-03T06:34:04;26.60;1.00
3208;DHT22;1616;52.394;9.756;2022-09-03T06:36:30;26.70;1.00
3208;DHT22;1616;52.394;9.756;2022-09-03T06:38:57;26.90;1.00
3208;DHT22;1616;52.394;9.756;2022-09-03T06:41:30;26.70;1.00
3208;DHT22;1616;52.394;9.756;2022-09-03T06:44:01;26.60;1.00
3208;DHT22;1616;52.394;9.756;2022-09-03T06:46:29;26.70;1.00
3208;DHT22;1616;52.394;9.756;2022-09-03T06:48:55;26.80;1.00
3208;DHT22;1616;52.394;9.756;2022-09-03T06:51:23;26.90;1.00
3208;DHT22;1616;52.394;9.756;2022-09-03T06:53:52;27.00;1.00
3208;DHT22;1616;52.394;9.756;2022-09-03T06:56:21;27.20;1.00
3208;DHT22;1616;52.394;9.756;2022-09-03T06:59:04;27.30;1.00
3208;DHT22;1616;52.394;9.756;2022-09-03T07:01:31;27.50;1.00
3208;DHT22;1616;52.394;9.756;2022-09-03T07:04:02;27.50;1.00
3208;DHT22;1616;52.394;9.756;2022-09-03T07:06:34;27.70;1.00
3208;DHT22;1616;52.394;9.756;2022-09-03T07:09:02;27.80;1.00
3208;DHT22;1616;52.394;9.756;2022-09-03T07:11:29;27.90;1.00
3208;DHT22;1616;52.394;9.756;2022-09-03T07:13:56;28.00;1.00
3208;DHT22;1616;52.394;9.756;2022-09-03T07:16:25;28.00;1.00
3208;DHT22;1616;52.394;9.756;2022-09-03T07:18:53;27.90;1.00
3208;DHT22;1616;52.394;9.756;2022-09-03T07:21:21;28.00;1.00
3208;DHT22;1616;52.394;9.756;2022-09-03T07:23:48;28.00;1.00
3208;DHT22;1616;52.394;9.756;2022-09-03T07:26:19;28.10;1.00
3208;DHT22;1616;52.394;9.756;2022-09-03T07:28:45;28.10;1.00
3208;DHT22;1616;52.394;9.756;2022-09-03T07:31:17;28.20;1.00
3208;DHT22;1616;52.394;9.756;2022-09-03T07:33:47;28.20;1.00
3208;DHT22;1616;52.394;9.756;2022-09-03T07:36:16;28.30;1.00
3208;DHT22;1616;52.394;9.756;2022-09-03T07:38:43;28.50;1.00
3208;DHT22;1616;52.394;9.756;2022-09-03T07:41:11;28.80;1.00
3208;DHT22;1616;52.394;9.756;2022-09-03T07:43:47;28.90;1.00
3208;DHT22;1616;52.394;9.756;2022-09-03T07:46:21;29.20;1.00
3208;DHT22;1616;52.394;9.756;2022-09-03T07:48:54;29.20;1.00
3208;DHT22;1616;52.394;9.756;2022-09-03T07:51:23;29.20;1.00
3208;DHT22;1616;52.394;9.756;2022-09-03T07:53:52;29.20;1.00
3208;DHT22;1616;52.394;9.756;2022-09-03T07:56:18;29.20;1.00
3208;DHT22;1616;52.394;9.756;2022-09-03T07:58:44;29.40;1.00
3208;DHT22;1616;52.394;9.756;2022-09-03T08:01:12;29.50;1.00
3208;DHT22;1616;52.394;9.756;2022-09-03T08:03:46;29.60;1.00
3208;DHT22;1616;52.394;9.756;2022-09-03T08:06:13;29.80;1.00
3208;DHT22;1616;52.394;9.756;2022-09-03T08:08:39;29.90;1.00
3208;DHT22;1616;52.394;9.756;2022-09-03T08:11:06;30.00;1.00
3208;DHT22;1616;52.394;9.756;2022-09-03T08:13:34;30.00;1.00
3208;DHT22;1616;52.394;9.756;2022-09-03T08:16:00;30.00;1.00
3208;DHT22;1616;52.394;9.756;2022-09-03T08:18:26;29.70;1.00
3208;DHT22;1616;52.394;9.756;2022-09-03T08:21:09;29.40;1.00
3208;DHT22;1616;52.394;9.756;2022-09-03T08:23:38;29.20;1.00
3208;DHT22;1616;52.394;9.756;2022-09-03T08:26:05;28.90;1.00
3208;DHT22;1616;52.394;9.756;2022-09-03T08:28:31;28.80;1.00
3208;DHT22;1616;52.394;9.756;2022-09-03T08:31:10;28.60;1.00
3208;DHT22;1616;52.394;9.756;2022-09-03T08:33:41;28.40;1.00
3208;DHT22;1616;52.394;9.756;2022-09-03T08:36:14;28.30;1.00
3208;DHT22;1616;52.394;9.756;2022-09-03T08:38:42;28.10;1.00
3208;DHT22;1616;52.394;9.756;2022-09-03T08:41:17;27.90;1.00
3208;DHT22;1616;52.394;9.756;2022-09-03T08:44:09;27.60;1.00
3208;DHT22;1616;52.394;9.756;2022-09-03T08:46:49;27.20;1.00
3208;DHT22;1616;52.394;9.756;2022-09-03T08:49:31;26.80;1.00
3208;DHT22;1616;52.394;9.756;2022-09-03T08:52:02;26.40;1.00
3208;DHT22;1616;52.394;9.756;2022-09-03T08:54:31;26.00;1.00
3208;DHT22;1616;52.394;9.756;2022-09-03T08:57:00;25.70;1.00
3208;DHT22;1616;52.394;9.756;2022-09-03T08:59:27;25.40;1.00
3208;DHT22;1616;52.394;9.756;2022-09-03T09:08:00;25.30;1.00
3208;DHT22;1616;52.394;9.756;2022-09-03T09:10:39;25.40;1.00
3208;DHT22;1616;52.394;9.756;2022-09-03T09:13:41;25.60;1.00
3208;DHT22;1616;52.394;9.756;2022-09-03T09:16:27;25.60;1.00
3208;DHT22;1616;52.394;9.756;2022-09-03T09:19:09;25.70;1.00
3208;DHT22;1616;52.394;9.756;2022-09-03T09:21:40;25.70;1.00
3208;DHT22;1616;52.394;9.756;2022-09-03T09:24:19;25.80;1.00
3208;DHT22;1616;52.394;9.756;2022-09-03T09:26:46;25.90;1.00
3208;DHT22;1616;52.394;9.756;2022-09-03T09:29:13;26.10;1.00
3208;DHT22;1616;52.394;9.756;2022-09-03T09:31:41;26.20;1.00
3208;DHT22;1616;52.394;9.756;2022-09-03T09:34:09;26.40;1.00
3208;DHT22;1616;52.394;9.756;2022-09-03T09:36:47;26.40;1.00
3208;DHT22;1616;52.394;9.756;2022-09-03T09:39:14;26.40;1.00
3208;DHT22;1616;52.394;9.756;2022-09-03T09:42:04;26.50;1.00
3208;DHT22;1616;52.394;9.756;2022-09-03T09:44:35;26.60;1.00
3208;DHT22;1616;52.394;9.756;2022-09-03T09:47:06;26.90;1.00
3208;DHT22;1616;52.394;9.756;2022-09-03T09:49:37;27.00;1.00
3208;DHT22;1616;52.394;9.756;2022-09-03T09:52:11;27.00;1.00
3208;DHT22;1616;52.394;9.756;2022-09-03T09:54:38;27.00;1.00
3208;DHT22;1616;52.394;9.756;2022-09-03T09:57:06;27.10;1.00
3208;DHT22;1616;52.394;9.756;2022-09-03T09:59:34;27.50;1.00
3208;DHT22;1616;52.394;9.756;2022-09-03T10:02:25;28.00;1.00
3208;DHT22;1616;52.394;9.756;2022-09-03T10:04:54;28.60;1.00
3208;DHT22;1616;52.394;9.756;2022-09-03T10:07:30;29.20;1.00
3208;DHT22;1616;52.394;9.756;2022-09-03T10:10:06;29.60;1.00
3208;DHT22;1616;52.394;9.756;2022-09-03T10:13:05;30.00;1.00
3208;DHT22;1616;52.394;9.756;2022-09-03T10:22:06;31.20;1.00
3208;DHT22;1616;52.394;9.756;2022-09-03T10:25:06;31.70;1.00
3208;DHT22;1616;52.394;9.756;2022-09-03T10:27:33;32.00;1.00
3208;DHT22;1616;52.394;9.756;2022-09-03T10:30:02;32.10;1.00
3208;DHT22;1616;52.394;9.756;2022-09-03T10:35:31;32.20;1.00
3208;DHT22;1616;52.394;9.756;2022-09-03T10:38:08;32.40;1.00
3208;DHT22;1616;52.394;9.756;2022-09-03T10:40:39;32.70;1.00
3208;DHT22;1616;52.394;9.756;2022-09-03T10:43:24;33.00;1.00
3208;DHT22;1616;52.394;9.756;2022-09-03T10:46:27;33.40;1.00
3208;DHT22;1616;52.394;9.756;2022-09-03T10:51:40;33.80;1.00
3208;DHT22;1616;52.394;9.756;2022-09-03T10:57:07;33.40;1.00
3208;DHT22;1616;52.394;9.756;2022-09-03T10:59:59;33.10;1.00
3208;DHT22;1616;52.394;9.756;2022-09-03T11:05:50;32.50;1.00
3208;DHT22;1616;52.394;9.756;2022-09-03T11:08:24;32.50;1.00
3208;DHT22;1616;52.394;9.756;2022-09-03T11:11:03;32.40;1.00
3208;DHT22;1616;52.394;9.756;2022-09-03T11:13:36;32.40;1.00
3208;DHT22;1616;52.394;9.756;2022-09-03T11:16:29;32.40;1.00
3208;DHT22;1616;52.394;9.756;2022-09-03T11:19:04;32.70;1.00
3208;DHT22;1616;52.394;9.756;2022-09-03T11:21:31;32.70;1.00
3208;DHT22;1616;52.394;9.756;2022-09-03T11:26:40;32.50;1.00
3208;DHT22;1616;52.394;9.756;2022-09-03T11:29:32;32.40;1.00
3208;DHT22;1616;52.394;9.756;2022-09-03T11:32:07;32.40;1.00
3208;DHT22;1616;52.394;9.756;2022-09-03T11:34:50;32.30;1.00
3208;DHT22;1616;52.394;9.756;2022-09-03T11:37:29;32.50;1.00
3208;DHT22;1616;52.394;9.756;2022-09-03T11:40:04;32.60;1.00
3208;DHT22;1616;52.394;9.756;2022-09-03T11:47:49;32.30;1.00
3208;DHT22;1616;52.394;9.756;2022-09-03T11:50:21;32.40;1.00
3208;DHT22;1616;52.394;9.756;2022-09-03T11:52:49;32.40;1.00
3208;DHT22;1616;52.394;9.756;2022-09-03T11:55:30;32.60;1.00
3208;DHT22;1616;52.394;9.756;2022-09-03T11:58:11;32.60;1.00
3208;DHT22;1616;52.394;9.756;2022-09-03T12:00:39;32.70;1.00
3208;DHT22;1616;52.394;9.756;2022-09-03T12:03:13;32.90;1.00
3208;DHT22;1616;52.394;9.756;2022-09-03T12:05:48;32.80;1.00
3208;DHT22;1616;52.394;9.756;2022-09-03T12:08:46;32.80;1.00
3208;DHT22;1616;52.394;9.756;2022-09-03T12:11:40;33.00;1.00
3208;DHT22;1616;52.394;9.756;2022-09-03T12:17:27;32.70;1.00
3208;DHT22;1616;52.394;9.756;2022-09-03T12:19:57;32.70;1.00
3208;DHT22;1616;52.394;9.756;2022-09-03T12:22:27;32.50;1.00
3208;DHT22;1616;52.394;9.756;2022-09-03T12:24:54;32.40;1.00
3208;DHT22;1616;52.394;9.756;2022-09-03T12:27:25;32.40;1.00
3208;DHT22;1616;52.394;9.756;2022-09-03T12:29:57;32.40;1.00
3208;DHT22;1616;52.394;9.756;2022-09-03T12:32:31;32.30;1.00
3208;DHT22;1616;52.394;9.756;2022-09-03T12:35:16;32.20;1.00
3208;DHT22;1616;52.394;9.756;2022-09-03T12:37:43;32.00;1.00
3208;DHT22;1616;52.394;9.756;2022-09-03T12:40:22;31.80;1.00
3208;DHT22;1616;52.394;9.756;2022-09-03T12:42:49;31.60;1.00
3208;DHT22;1616;52.394;9.756;2022-09-03T12:45:22;31.60;1.00
3208;DHT22;1616;52.394;9.756;2022-09-03T12:47:48;31.60;1.00
3208;DHT22;1616;52.394;9.756;2022-09-03T12:50:20;31.60;1.00
3208;DHT22;1616;52.394;9.756;2022-09-03T12:55:24;31.20;1.00
3208;DHT22;1616;52.394;9.756;2022-09-03T13:00:21;30.80;1.00
3208;DHT22;1616;52.394;9.756;2022-09-03T13:05:35;30.10;1.00
3208;DHT22;1616;52.394;9.756;2022-09-03T13:08:07;29.80;1.00
3208;DHT22;1616;52.394;9.756;2022-09-03T13:10:38;29.50;1.00
3208;DHT22;1616;52.394;9.756;2022-09-03T13:13:20;29.20;1.00
3208;DHT22;1616;52.394;9.756;2022-09-03T13:18:50;28.50;1.00
3208;DHT22;1616;52.394;9.756;2022-09-03T13:24:23;28.10;1.00
3208;DHT22;1616;52.394;9.756;2022-09-03T13:30:14;27.70;1.00
3208;DHT22;1616;52.394;9.756;2022-09-03T13:41:17;26.90;1.00
3208;DHT22;1616;52.394;9.756;2022-09-03T13:43:58;26.80;1.00
3208;DHT22;1616;52.394;9.756;2022-09-03T13:46:47;26.60;1.00
3208;DHT22;1616;52.394;9.756;2022-09-03T13:49:36;26.50;1.00
3208;DHT22;1616;52.394;9.756;2022-09-03T13:52:30;26.40;1.00
3208;DHT22;1616;52.394;9.756;2022-09-03T13:55:05;26.30;1.00
3208;DHT22;1616;52.394;9.756;2022-09-03T13:57:49;26.30;1.00
3208;DHT22;1616;52.394;9.756;2022-09-03T14:00:30;26.20;1.00
3208;DHT22;1616;52.394;9.756;2022-09-03T14:11:26;25.80;1.00
3208;DHT22;1616;52.394;9.756;2022-09-03T14:14:05;25.70;1.00
3208;DHT22;1616;52.394;9.756;2022-09-03T14:17:12;25.60;1.00
3208;DHT22;1616;52.394;9.756;2022-09-03T14:19:53;25.60;1.00
3208;DHT22;1616;52.394;9.756;2022-09-03T14:25:20;25.40;1.00
3208;DHT22;1616;52.394;9.756;2022-09-03T14:27:46;25.30;1.00
3208;DHT22;1616;52.394;9.756;2022-09-03T14:32:49;25.30;1.00
3208;DHT22;1616;52.394;9.756;2022-09-03T14:35:57;25.20;1.00
3208;DHT22;1616;52.394;9.756;2022-09-03T14:46:48;25.10;1.00
3208;DHT22;1616;52.394;9.756;2022-09-03T14:49:25;25.10;1.00
3208;DHT22;1616;52.394;9.756;2022-09-03T14:54:26;25.10;1.00
3208;DHT22;1616;52.394;9.756;2022-09-03T14:57:15;25.10;1.00
3208;DHT22;1616;52.394;9.756;2022-09-03T15:02:29;25.00;1.00
3208;DHT22;1616;52.394;9.756;2022-09-03T15:07:59;25.00;1.00
3208;DHT22;1616;52.394;9.756;2022-09-03T15:10:45;25.00;1.00
3208;DHT22;1616;52.394;9.756;2022-09-03T15:13:30;25.00;1.00
3208;DHT22;1616;52.394;9.756;2022-09-03T15:16:46;25.10;1.00
3208;DHT22;1616;52.394;9.756;2022-09-03T15:22:07;25.10;1.00
3208;DHT22;1616;52.394;9.756;2022-09-03T15:24:53;25.10;1.00
3208;DHT22;1616;52.394;9.756;2022-09-03T15:30:11;25.10;1.00
3208;DHT22;1616;52.394;9.756;2022-09-03T15:35:41;25.00;1.00
3208;DHT22;1616;52.394;9.756;2022-09-03T15:41:43;25.00;1.00
3208;DHT22;1616;52.394;9.756;2022-09-03T15:44:15;24.80;1.00
3208;DHT22;1616;52.394;9.756;2022-09-03T15:47:02;24.90;1.00
3208;DHT22;1616;52.394;9.756;2022-09-03T15:55:33;24.80;1.00
3208;DHT22;1616;52.394;9.756;2022-09-03T15:58:06;24.80;1.00
3208;DHT22;1616;52.394;9.756;2022-09-03T16:03:11;24.70;1.00
3208;DHT22;1616;52.394;9.756;2022-09-03T16:05:47;24.70;1.00
3208;DHT22;1616;52.394;9.756;2022-09-03T16:08:28;24.70;1.00
3208;DHT22;1616;52.394;9.756;2022-09-03T16:11:17;24.60;1.00
3208;DHT22;1616;52.394;9.756;2022-09-03T16:14:05;24.50;1.00
3208;DHT22;1616;52.394;9.756;2022-09-03T16:16:53;24.50;1.00
3208;DHT22;1616;52.394;9.756;2022-09-03T16:19:40;24.40;1.00
3208;DHT22;1616;52.394;9.756;2022-09-03T16:22:22;24.40;1.00
3208;DHT22;1616;52.394;9.756;2022-09-03T16:25:06;24.40;1.00
3208;DHT22;1616;52.394;9.756;2022-09-03T16:38:45;24.20;1.00
3208;DHT22;1616;52.394;9.756;2022-09-03T16:41:39;24.10;1.00
3208;DHT22;1616;52.394;9.756;2022-09-03T16:44:18;24.00;1.00
3208;DHT22;1616;52.394;9.756;2022-09-03T16:46:58;24.00;1.00
3208;DHT22;1616;52.394;9.756;2022-09-03T16:49:39;23.90;1.00
3208;DHT22;1616;52.394;9.756;2022-09-03T16:58:11;23.80;1.00
3208;DHT22;1616;52.394;9.756;2022-09-03T17:07:00;23.60;1.00
3208;DHT22;1616;52.394;9.756;2022-09-03T17:09:40;23.50;1.00
3208;DHT22;1616;52.394;9.756;2022-09-03T17:12:20;23.40;1.00
3208;DHT22;1616;52.394;9.756;2022-09-03T17:17:18;23.10;1.00
3208;DHT22;1616;52.394;9.756;2022-09-03T17:25:53;23.10;1.00
3208;DHT22;1616;52.394;9.756;2022-09-03T17:28:25;23.00;1.00
3208;DHT22;1616;52.394;9.756;2022-09-03T17:36:09;22.80;1.00
3208;DHT22;1616;52.394;9.756;2022-09-03T17:41:45;22.60;1.00
3208;DHT22;1616;52.394;9.756;2022-09-03T17:49:55;22.40;1.00
3208;DHT22;1616;52.394;9.756;2022-09-03T17:52:38;22.40;1.00
3208;DHT22;1616;52.394;9.756;2022-09-03T17:58:20;22.20;1.00
3208;DHT22;1616;52.394;9.756;2022-09-03T18:01:23;22.10;1.00
3208;DHT22;1616;52.394;9.756;2022-09-03T18:03:58;22.10;1.00
3208;DHT22;1616;52.394;9.756;2022-09-03T18:11:47;21.90;1.00
3208;DHT22;1616;52.394;9.756;2022-09-03T18:14:25;21.90;1.00
3208;DHT22;1616;52.394;9.756;2022-09-03T18:19:58;21.80;1.00
3208;DHT22;1616;52.394;9.756;2022-09-03T18:23:01;21.80;1.00
3208;DHT22;1616;52.394;9.756;2022-09-03T18:25:50;21.70;1.00
3208;DHT22;1616;52.394;9.756;2022-09-03T18:28:48;21.70;1.00
3208;DHT22;1616;52.394;9.756;2022-09-03T18:31:33;21.70;1.00
3208;DHT22;1616;52.394;9.756;2022-09-03T18:34:21;21.60;1.00
3208;DHT22;1616;52.394;9.756;2022-09-03T18:37:09;21.60;1.00
3208;DHT22;1616;52.394;9.756;2022-09-03T18:39:54;21.50;1.00
3208;DHT22;1616;52.394;9.756;2022-09-03T18:46:04;21.40;1.00
3208;DHT22;1616;52.394;9.756;2022-09-03T18:52:42;21.20;1.00
3208;DHT22;1616;52.394;9.756;2022-09-03T19:01:53;21.10;1.00
3208;DHT22;1616;52.394;9.756;2022-09-03T19:05:05;21.10;1.00
3208;DHT22;1616;52.394;9.756;2022-09-03T19:07:59;21.00;1.00
3208;DHT22;1616;52.394;9.756;2022-09-03T19:13:57;20.80;1.00
3208;DHT22;1616;52.394;9.756;2022-09-03T19:17:05;20.70;1.00
3208;DHT22;1616;52.394;9.756;2022-09-03T19:20:13;20.70;1.00
3208;DHT22;1616;52.394;9.756;2022-09-03T19:23:01;20.60;1.00
3208;DHT22;1616;52.394;9.756;2022-09-03T19:25:46;20.50;1.00
3208;DHT22;1616;52.394;9.756;2022-09-03T19:28:32;20.40;1.00
3208;DHT22;1616;52.394;9.756;2022-09-03T19:31:43;20.30;1.00
3208;DHT22;1616;52.394;9.756;2022-09-03T19:37:36;20.20;1.00
3208;DHT22;1616;52.394;9.756;2022-09-03T19:40:48;20.10;1.00
3208;DHT22;1616;52.394;9.756;2022-09-03T19:44:07;20.10;1.00
3208;DHT22;1616;52.394;9.756;2022-09-03T19:47:00;20.00;1.00
3208;DHT22;1616;52.394;9.756;2022-09-03T19:52:40;19.90;1.00
3208;DHT22;1616;52.394;9.756;2022-09-03T19:55:30;19.90;1.00
3208;DHT22;1616;52.394;9.756;2022-09-03T19:58:19;19.80;1.00
3208;DHT22;1616;52.394;9.756;2022-09-03T20:01:04;19.80;1.00
3208;DHT22;1616;52.394;9.756;2022-09-03T20:03:49;19.70;1.00
3208;DHT22;1616;52.394;9.756;2022-09-03T20:06:35;19.70;1.00
3208;DHT22;1616;52.394;9.756;2022-09-03T20:09:22;19.70;1.00
3208;DHT22;1616;52.394;9.756;2022-09-03T20:12:12;19.60;1.00
3208;DHT22;1616;52.394;9.756;2022-09-03T20:14:41;19.50;1.00
3208;DHT22;1616;52.394;9.756;2022-09-03T20:20:14;19.40;1.00
3208;DHT22;1616;52.394;9.756;2022-09-03T20:25:45;19.30;1.00
3208;DHT22;1616;52.394;9.756;2022-09-03T20:31:23;19.20;1.00
3208;DHT22;1616;52.394;9.756;2022-09-03T20:39:55;19.00;1.00
3208;DHT22;1616;52.394;9.756;2022-09-03T20:45:15;18.90;1.00
3208;DHT22;1616;52.394;9.756;2022-09-03T20:47:49;19.50;1.00
3208;DHT22;1616;52.394;9.756;2022-09-03T20:50:41;18.80;1.00
3208;DHT22;1616;52.394;9.756;2022-09-03T20:56:38;18.80;1.00
3208;DHT22;1616;52.394;9.756;2022-09-03T21:02:09;19.80;1.00
3208;DHT22;1616;52.394;9.756;2022-09-03T21:07:43;18.50;1.00
3208;DHT22;1616;52.394;9.756;2022-09-03T21:13:20;18.50;1.00
3208;DHT22;1616;52.394;9.756;2022-09-03T21:18:26;18.40;1.00
3208;DHT22;1616;52.394;9.756;2022-09-03T21:21:05;18.40;1.00
3208;DHT22;1616;52.394;9.756;2022-09-03T21:23:40;18.30;1.00
3208;DHT22;1616;52.394;9.756;2022-09-03T21:26:18;18.30;1.00